createdAt,value
2019-02-20T00:01:44.320Z,82.60
2019-02-20T00:06:47.892Z,83.70
2019-02-20T00:11:51.477Z,81.80
2019-02-20T00:16:55.092Z,83.70
2019-02-20T00:21:58.757Z,82.40
2019-02-20T00:27:02.599Z,84.30
2019-02-20T00:32:06.200Z,84.10
2019-02-20T00:37:10.150Z,86.60
2019-02-20T00:42:14.114Z,86.50
2019-02-20T00:47:25.433Z,85.00
2019-02-20T00:52:30.658Z,83.60
2019-02-20T00:57:34.236Z,84.80
2019-02-20T01:02:37.823Z,84.00
2019-02-20T01:07:41.472Z,83.20
2019-02-20T01:12:45.052Z,83.00
2019-02-20T01:17:48.646Z,84.60
2019-02-20T01:22:59.608Z,84.40
2019-02-20T01:27:57.453Z,86.10
2019-02-20T01:33:01.042Z,86.60
2019-02-20T01:38:04.696Z,86.10
2019-02-20T01:43:08.280Z,84.90
2019-02-20T01:48:11.880Z,86.00
2019-02-20T01:53:15.464Z,87.40
2019-02-20T01:58:19.052Z,88.40
2019-02-20T02:03:22.704Z,87.40
2019-02-20T02:08:26.293Z,84.50
2019-02-20T02:13:29.889Z,84.60
2019-02-20T02:18:33.476Z,84.00
2019-02-20T02:23:37.047Z,84.70
2019-02-20T02:28:40.999Z,85.60
2019-02-20T02:33:44.576Z,84.90
2019-02-20T02:38:48.186Z,87.20
2019-02-20T02:43:52.197Z,86.90
2019-02-20T02:48:55.788Z,88.50
2019-02-20T02:53:59.390Z,86.50
2019-02-20T02:59:02.960Z,87.60
2019-02-20T03:04:06.612Z,85.40
2019-02-20T03:09:10.268Z,86.10
2019-02-20T03:14:13.948Z,86.60
2019-02-20T03:19:17.529Z,86.40
2019-02-20T03:24:21.139Z,85.90
2019-02-20T03:29:24.715Z,86.40
2019-02-20T03:34:28.630Z,86.80
2019-02-20T03:39:32.295Z,85.50
2019-02-20T03:44:35.956Z,87.60
2019-02-20T03:49:39.541Z,87.00
2019-02-20T03:54:43.464Z,90.40
2019-02-20T03:59:47.452Z,89.70
2019-02-20T04:04:51.049Z,89.70
2019-02-20T04:09:54.976Z,89.60
2019-02-20T04:14:58.630Z,87.80
2019-02-20T04:20:02.219Z,89.40
2019-02-20T04:25:06.369Z,87.80
2019-02-20T04:30:10.288Z,90.20
2019-02-20T04:35:13.883Z,90.80
2019-02-20T04:40:17.464Z,90.50
2019-02-20T04:45:21.044Z,90.10
2019-02-20T04:50:24.644Z,90.80
2019-02-20T04:55:28.507Z,90.50
2019-02-20T05:00:32.457Z,89.80
2019-02-20T05:05:36.043Z,90.30
2019-02-20T05:10:39.656Z,90.60
2019-02-20T05:15:43.206Z,91.40
2019-02-20T05:20:46.791Z,90.90
2019-02-20T05:25:50.448Z,90.50
2019-02-20T05:30:54.481Z,89.80
2019-02-20T05:35:58.065Z,89.70
2019-02-20T05:41:01.660Z,90.20
2019-02-20T05:46:05.237Z,90.10
2019-02-20T05:51:08.821Z,90.00
2019-02-20T05:56:12.472Z,88.60
2019-02-20T06:01:16.069Z,89.00
2019-02-20T06:06:19.656Z,91.30
2019-02-20T06:11:23.312Z,91.10
2019-02-20T06:16:26.913Z,90.00
2019-02-20T06:21:30.502Z,91.60
2019-02-20T06:26:34.095Z,91.30
2019-02-20T06:31:37.673Z,91.20
2019-02-20T06:36:41.284Z,90.70
2019-02-20T06:41:44.921Z,90.20
2019-02-20T06:46:48.508Z,89.50
2019-02-20T06:51:52.094Z,90.00
2019-02-20T06:56:55.676Z,90.80
2019-02-20T07:01:59.335Z,90.80
2019-02-20T07:07:08.502Z,90.20
2019-02-20T07:12:29.977Z,88.90
2019-02-20T07:17:36.941Z,90.60
2019-02-20T07:23:04.354Z,91.10
2019-02-20T07:28:26.257Z,90.30
2019-02-20T07:33:29.841Z,89.10
2019-02-20T07:38:33.430Z,90.10
2019-02-20T07:43:37.008Z,88.90
2019-02-20T07:48:40.605Z,87.30
2019-02-20T07:53:44.584Z,88.10
2019-02-20T07:58:48.623Z,90.00
2019-02-20T08:03:52.208Z,88.40
2019-02-20T08:08:56.269Z,87.80
2019-02-20T08:13:59.848Z,87.10
2019-02-20T08:19:03.505Z,86.80
2019-02-20T08:24:07.088Z,88.60
2019-02-20T08:29:10.675Z,87.60
2019-02-20T08:34:14.261Z,87.10
2019-02-20T08:39:17.849Z,86.10
2019-02-20T08:44:21.427Z,86.60
2019-02-20T08:49:25.010Z,86.40
2019-02-20T08:54:28.588Z,87.00
2019-02-20T08:59:32.497Z,85.80
2019-02-20T09:04:36.088Z,84.50
2019-02-20T09:09:39.668Z,84.60
2019-02-20T09:14:43.249Z,83.60
2019-02-20T09:19:46.830Z,82.80
2019-02-20T09:24:50.417Z,82.20
2019-02-20T09:29:53.998Z,80.00
2019-02-20T09:34:57.590Z,77.80
2019-02-20T09:40:01.177Z,73.90
2019-02-20T09:45:06.702Z,70.40
2019-02-20T09:50:11.238Z,68.50
2019-02-20T09:55:14.824Z,68.10
2019-02-20T10:00:19.520Z,64.30
2019-02-20T10:05:23.180Z,59.00
2019-02-20T10:10:26.783Z,57.40
2019-02-20T10:15:30.433Z,57.90
2019-02-20T10:20:34.376Z,58.00
2019-02-20T10:25:38.329Z,53.30
2019-02-20T10:30:41.979Z,52.50
2019-02-20T10:35:45.562Z,48.90
2019-02-20T10:40:49.148Z,48.60
2019-02-20T10:45:52.734Z,46.40
2019-02-20T10:50:56.321Z,43.70
2019-02-20T10:56:00.249Z,44.10
2019-02-20T11:01:03.977Z,43.60
2019-02-20T11:06:07.564Z,45.50
2019-02-20T11:11:11.165Z,43.10
2019-02-20T11:16:15.073Z,45.20
2019-02-20T11:21:18.728Z,46.30
2019-02-20T11:26:22.709Z,46.40
2019-02-20T11:31:26.284Z,47.00
2019-02-20T11:36:29.948Z,46.20
2019-02-20T11:41:33.897Z,46.40
2019-02-20T11:46:37.809Z,45.30
2019-02-20T11:51:41.477Z,46.30
2019-02-20T11:56:45.065Z,46.50
2019-02-20T12:01:48.651Z,44.50
2019-02-20T12:06:52.241Z,44.00
2019-02-20T12:11:55.895Z,41.30
2019-02-20T12:16:59.475Z,39.40
2019-02-20T12:22:03.061Z,37.10
2019-02-20T12:27:07.014Z,35.50
2019-02-20T12:32:10.735Z,34.30
2019-02-20T12:37:14.588Z,32.50
2019-02-20T12:42:18.182Z,30.10
2019-02-20T12:47:21.771Z,29.70
2019-02-20T12:52:26.535Z,28.60
2019-02-20T12:57:30.216Z,30.00
2019-02-20T13:02:33.798Z,29.90
2019-02-20T13:07:37.457Z,30.60
2019-02-20T13:12:41.046Z,30.80
2019-02-20T13:17:44.630Z,32.60
2019-02-20T13:22:48.595Z,31.40
2019-02-20T13:27:52.193Z,31.90
2019-02-20T13:32:55.781Z,33.00
2019-02-20T13:37:59.634Z,33.30
2019-02-20T13:43:03.736Z,33.50
2019-02-20T13:48:07.397Z,33.70
2019-02-20T13:53:11.660Z,33.20
2019-02-20T13:58:17.638Z,33.70
2019-02-20T14:03:21.114Z,34.50
2019-02-20T14:08:24.701Z,36.10
2019-02-20T14:13:28.285Z,36.30
2019-02-20T14:18:31.877Z,35.50
2019-02-20T14:23:35.465Z,33.70
2019-02-20T14:28:39.064Z,35.50
2019-02-20T14:33:42.661Z,35.60
2019-02-20T14:38:46.617Z,35.70
2019-02-20T14:43:50.210Z,35.70
2019-02-20T14:48:54.182Z,36.70
2019-02-20T14:53:57.779Z,37.10
2019-02-20T14:59:01.363Z,37.60
2019-02-20T15:04:05.082Z,37.90
2019-02-20T15:09:09.245Z,38.50
2019-02-20T15:14:12.932Z,37.80
2019-02-20T15:19:16.516Z,37.00
2019-02-20T15:24:20.253Z,38.70
2019-02-20T15:29:23.924Z,38.90
2019-02-20T15:34:27.585Z,40.40
2019-02-20T15:39:31.314Z,40.90
2019-02-20T15:44:34.910Z,40.80
2019-02-20T15:49:38.568Z,41.90
2019-02-20T15:54:42.224Z,42.60
2019-02-20T15:59:46.139Z,43.60
2019-02-20T16:04:49.780Z,46.20
2019-02-20T16:09:53.390Z,48.00
2019-02-20T16:14:57.386Z,49.50
2019-02-20T16:20:01.044Z,50.90
2019-02-20T16:25:08.824Z,51.80
2019-02-20T16:30:14.045Z,53.60
2019-02-20T16:35:18.017Z,54.60
2019-02-20T16:40:21.684Z,56.00
2019-02-20T16:45:25.946Z,57.40
2019-02-20T16:50:30.107Z,58.10
2019-02-20T16:55:33.680Z,59.20
2019-02-20T17:00:37.405Z,60.10
2019-02-20T17:05:41.161Z,61.40
2019-02-20T17:10:44.816Z,62.80
2019-02-20T17:15:49.353Z,64.60
2019-02-20T17:20:52.936Z,67.20
2019-02-20T17:25:56.602Z,67.70
2019-02-20T17:31:00.333Z,69.20
2019-02-20T17:36:03.990Z,70.10
2019-02-20T17:41:08.236Z,70.60
2019-02-20T17:46:12.210Z,71.30
2019-02-20T17:51:15.793Z,70.90
2019-02-20T17:56:19.754Z,71.30
2019-02-20T18:01:23.903Z,71.40
2019-02-20T18:06:27.548Z,72.10
2019-02-20T18:11:31.135Z,71.80
2019-02-20T18:16:34.717Z,70.30
2019-02-20T18:21:38.296Z,70.00
2019-02-20T18:26:44.777Z,69.80
2019-02-20T18:31:48.357Z,70.50
2019-02-20T18:36:52.286Z,71.20
2019-02-20T18:41:55.879Z,71.00
2019-02-20T18:46:59.534Z,71.20
2019-02-20T18:52:03.109Z,72.80
2019-02-20T18:57:06.761Z,73.60
2019-02-20T19:02:10.714Z,73.70
2019-02-20T19:07:14.483Z,73.30
2019-02-20T19:12:21.257Z,73.50
2019-02-20T19:17:40.348Z,74.30
2019-02-20T19:23:06.784Z,74.50
2019-02-20T19:28:16.110Z,74.60
2019-02-20T19:33:40.801Z,74.20
2019-02-20T19:38:59.104Z,74.50
2019-02-20T19:44:20.800Z,74.90
2019-02-20T19:49:50.219Z,75.90
2019-02-20T19:55:02.522Z,75.80
2019-02-20T20:00:31.538Z,76.60
2019-02-20T20:05:53.398Z,76.70
2019-02-20T20:11:16.820Z,77.10
2019-02-20T20:16:32.489Z,75.60
2019-02-20T20:21:44.860Z,75.60
2019-02-20T20:26:56.036Z,76.10
2019-02-20T20:37:32.957Z,78.30
2019-02-20T20:42:57.053Z,79.30
2019-02-20T20:48:35.000Z,79.40
2019-02-20T20:53:58.403Z,81.50
2019-02-20T20:59:17.487Z,79.60
2019-02-20T21:04:37.433Z,78.00
2019-02-20T21:09:53.187Z,78.50
2019-02-20T21:15:33.338Z,79.50
2019-02-20T21:20:52.275Z,81.20
2019-02-20T21:26:23.267Z,82.70
2019-02-20T21:32:00.847Z,79.10
2019-02-20T21:37:13.232Z,81.20
2019-02-20T21:42:39.637Z,82.80
2019-02-20T21:48:04.521Z,79.30
2019-02-20T21:53:35.156Z,79.80
2019-02-20T21:58:44.896Z,81.00
2019-02-20T22:04:01.262Z,81.60
2019-02-20T22:09:13.655Z,82.40
2019-02-20T22:14:21.324Z,82.90
2019-02-20T22:19:55.076Z,83.10
2019-02-20T22:25:18.451Z,81.50
2019-02-20T22:30:39.479Z,81.40
2019-02-20T22:36:11.937Z,81.70
2019-02-20T22:41:29.538Z,82.20
2019-02-20T22:46:45.168Z,83.70
2019-02-20T22:51:52.994Z,85.20
2019-02-20T22:57:17.903Z,81.70
2019-02-20T23:02:34.059Z,82.50
2019-02-20T23:07:55.677Z,82.40
2019-02-20T23:13:08.156Z,83.50
2019-02-20T23:18:11.780Z,83.10
2019-02-20T23:23:16.064Z,82.80
2019-02-20T23:28:20.074Z,82.20
2019-02-20T23:33:25.423Z,82.60
2019-02-20T23:38:29.093Z,85.50
2019-02-20T23:43:32.834Z,85.40
2019-02-20T23:48:37.287Z,85.80
2019-02-20T23:53:40.879Z,85.60
2019-02-20T23:58:47.057Z,83.80
